createdAt,value
2017-03-01T00:01:07.328Z,99.99
2017-03-01T00:02:16.814Z,99.99
2017-03-01T00:03:27.049Z,99.99
2017-03-01T00:04:36.931Z,99.99
2017-03-01T00:05:47.179Z,99.99
2017-03-01T00:06:55.877Z,99.99
2017-03-01T00:08:05.396Z,99.99
2017-03-01T00:09:14.479Z,99.99
2017-03-01T00:10:23.974Z,99.99
2017-03-01T00:11:33.818Z,99.99
2017-03-01T00:12:43.295Z,99.99
2017-03-01T00:13:52.753Z,99.99
2017-03-01T00:15:01.862Z,99.99
2017-03-01T00:16:12.102Z,99.99
2017-03-01T00:17:21.585Z,99.99
2017-03-01T00:18:30.291Z,99.99
2017-03-01T00:19:40.529Z,99.99
2017-03-01T00:20:50.807Z,99.99
2017-03-01T00:22:00.659Z,99.99
2017-03-01T00:23:10.133Z,99.99
2017-03-01T00:24:19.616Z,99.99
2017-03-01T00:25:29.076Z,99.99
2017-03-01T00:26:38.156Z,99.99
2017-03-01T00:27:48.027Z,99.99
2017-03-01T00:28:57.877Z,99.99
2017-03-01T00:30:07.352Z,99.99
2017-03-01T00:31:16.816Z,99.99
2017-03-01T00:32:25.903Z,99.99
2017-03-01T00:33:36.132Z,99.99
2017-03-01T00:34:45.974Z,99.99
2017-03-01T00:35:55.048Z,99.99
2017-03-01T00:37:05.285Z,99.99
2017-03-01T00:38:15.150Z,99.99
2017-03-01T00:39:23.849Z,99.99
2017-03-01T00:40:34.074Z,99.99
2017-03-01T00:41:43.528Z,99.99
2017-03-01T00:42:53.013Z,99.99
2017-03-01T00:44:02.730Z,99.99
2017-03-01T00:45:12.208Z,99.99
2017-03-01T00:46:22.060Z,99.99
2017-03-01T00:47:31.912Z,99.99
2017-03-01T00:48:40.984Z,99.99
2017-03-01T00:49:50.064Z,99.99
2017-03-01T00:50:59.525Z,99.99
2017-03-01T00:52:09.410Z,99.99
2017-03-01T00:53:19.249Z,99.99
2017-03-01T00:54:29.491Z,99.99
2017-03-01T00:55:38.185Z,99.99
2017-03-01T00:56:47.263Z,99.99
2017-03-01T00:57:56.761Z,99.99
2017-03-01T00:59:06.232Z,99.99
2017-03-01T01:00:15.320Z,99.99
2017-03-01T01:01:24.804Z,99.99
2017-03-01T01:02:34.265Z,99.99
2017-03-01T01:03:43.732Z,99.99
2017-03-01T01:04:53.199Z,99.99
2017-03-01T01:06:03.435Z,99.99
2017-03-01T01:07:13.288Z,99.99
2017-03-01T01:08:22.368Z,99.99
2017-03-01T01:09:32.620Z,99.99
2017-03-01T01:10:42.473Z,99.99
2017-03-01T01:11:51.550Z,99.99
2017-03-01T01:13:01.400Z,99.99
2017-03-01T01:14:11.249Z,99.99
2017-03-01T01:15:20.713Z,99.99
2017-03-01T01:16:30.174Z,99.99
2017-03-01T01:17:40.024Z,99.99
2017-03-01T01:18:49.511Z,99.99
2017-03-01T01:19:58.966Z,99.99
2017-03-01T01:21:08.440Z,99.99
2017-03-01T01:22:17.535Z,99.99
2017-03-01T01:23:27.378Z,99.99
2017-03-01T01:24:36.456Z,99.99
2017-03-01T01:25:45.965Z,99.99
2017-03-01T01:26:55.090Z,99.99
2017-03-01T01:28:04.940Z,99.99
2017-03-01T01:29:14.400Z,99.99
2017-03-01T01:30:24.267Z,99.99
2017-03-01T01:31:33.734Z,99.99
2017-03-01T01:32:43.593Z,99.99
2017-03-01T01:33:53.078Z,99.99
2017-03-01T01:35:03.363Z,99.99
2017-03-01T01:36:13.617Z,99.99
2017-03-01T01:37:22.687Z,99.99
2017-03-01T01:38:31.398Z,99.99
2017-03-01T01:39:41.239Z,99.99
2017-03-01T01:40:51.088Z,99.99
2017-03-01T01:41:59.794Z,99.99
2017-03-01T01:43:08.505Z,99.99
2017-03-01T01:44:18.367Z,99.99
2017-03-01T01:45:27.856Z,99.99
2017-03-01T01:46:36.956Z,99.99
2017-03-01T01:47:46.826Z,99.99
2017-03-01T01:48:56.702Z,99.99
2017-03-01T01:50:06.936Z,99.99
2017-03-01T01:51:17.180Z,99.99
2017-03-01T01:52:26.283Z,99.99
2017-03-01T01:53:35.749Z,99.99
2017-03-01T01:54:45.221Z,99.99
2017-03-01T01:55:54.326Z,99.99
2017-03-01T01:57:03.398Z,99.99
2017-03-01T01:58:12.508Z,99.99
2017-03-01T01:59:21.981Z,99.99
2017-03-01T02:00:32.198Z,99.99
2017-03-01T02:01:41.649Z,99.99
2017-03-01T02:02:51.518Z,99.99
2017-03-01T02:04:01.364Z,99.99
2017-03-01T02:05:11.216Z,99.99
2017-03-01T02:06:20.329Z,99.99
2017-03-01T02:07:29.800Z,99.99
2017-03-01T02:08:40.060Z,99.99
2017-03-01T02:09:49.919Z,99.99
2017-03-01T02:10:59.397Z,99.99
2017-03-01T02:12:08.869Z,99.99
2017-03-01T02:13:18.720Z,99.99
2017-03-01T02:14:27.793Z,99.99
2017-03-01T02:15:37.642Z,99.99
2017-03-01T02:16:46.345Z,99.99
2017-03-01T02:17:55.449Z,99.99
2017-03-01T02:19:04.546Z,99.99
2017-03-01T02:20:14.430Z,99.99
2017-03-01T02:21:23.894Z,99.99
2017-03-01T02:22:33.398Z,99.99
2017-03-01T02:23:42.863Z,99.99
2017-03-01T02:24:53.107Z,99.99
2017-03-01T02:26:02.575Z,99.99
2017-03-01T02:27:12.419Z,99.99
2017-03-01T02:28:23.045Z,99.99
2017-03-01T02:29:31.766Z,99.99
2017-03-01T02:30:41.611Z,99.99
2017-03-01T02:31:51.095Z,99.99
2017-03-01T02:33:00.947Z,99.99
2017-03-01T02:34:10.016Z,99.99
2017-03-01T02:35:19.499Z,99.99
2017-03-01T02:36:29.340Z,99.99
2017-03-01T02:37:38.430Z,99.99
2017-03-01T02:38:47.506Z,99.99
2017-03-01T02:39:57.768Z,99.99
2017-03-01T02:41:07.246Z,99.99
2017-03-01T02:42:16.729Z,99.99
2017-03-01T02:43:26.956Z,99.99
2017-03-01T02:44:36.811Z,99.99
2017-03-01T02:45:47.439Z,99.99
2017-03-01T02:46:56.902Z,99.99
2017-03-01T02:48:07.138Z,99.99
2017-03-01T02:49:16.985Z,99.99
2017-03-01T02:50:26.455Z,99.99
2017-03-01T02:51:35.932Z,99.99
2017-03-01T02:52:45.396Z,99.99
2017-03-01T02:53:54.478Z,99.99
2017-03-01T02:55:04.332Z,99.99
2017-03-01T02:56:13.820Z,99.99
2017-03-01T02:57:22.914Z,99.99
2017-03-01T02:58:32.377Z,99.99
2017-03-01T02:59:42.272Z,99.99
2017-03-01T03:00:52.171Z,99.99
2017-03-01T03:02:02.022Z,99.99
2017-03-01T03:03:11.881Z,99.99
2017-03-01T03:04:20.952Z,99.99
2017-03-01T03:05:30.419Z,99.99
2017-03-01T03:06:40.263Z,99.99
2017-03-01T03:07:50.521Z,99.99
2017-03-01T03:09:01.149Z,99.99
2017-03-01T03:10:10.627Z,99.99
2017-03-01T03:11:19.729Z,99.99
2017-03-01T03:12:28.427Z,99.99
2017-03-01T03:13:38.321Z,99.99
2017-03-01T03:14:48.199Z,99.99
2017-03-01T03:15:57.659Z,99.99
2017-03-01T03:17:06.370Z,99.99
2017-03-01T03:18:16.987Z,99.99
2017-03-01T03:19:25.676Z,99.99
2017-03-01T03:20:35.935Z,99.99
2017-03-01T03:21:45.045Z,99.99
2017-03-01T03:22:54.148Z,99.99
2017-03-01T03:24:04.414Z,99.99
2017-03-01T03:25:13.893Z,99.99
2017-03-01T03:26:23.369Z,99.99
2017-03-01T03:27:33.595Z,99.99
2017-03-01T03:28:43.065Z,99.99
2017-03-01T03:29:52.560Z,99.99
2017-03-01T03:31:02.470Z,99.99
2017-03-01T03:32:12.306Z,99.99
2017-03-01T03:33:21.803Z,99.99
2017-03-01T03:34:31.675Z,99.99
2017-03-01T03:35:41.609Z,99.99
2017-03-01T03:36:51.504Z,99.99
2017-03-01T03:38:01.063Z,99.99
2017-03-01T03:39:10.206Z,99.99
2017-03-01T03:40:18.900Z,99.99
2017-03-01T03:41:28.000Z,99.99
2017-03-01T03:42:37.517Z,99.99
2017-03-01T03:43:47.021Z,99.99
2017-03-01T03:44:56.525Z,99.99
2017-03-01T03:46:05.630Z,99.99
2017-03-01T03:47:15.483Z,99.99
2017-03-01T03:48:25.348Z,99.99
2017-03-01T03:49:35.572Z,99.99
2017-03-01T03:50:45.427Z,99.99
2017-03-01T03:51:55.270Z,99.99
2017-03-01T03:53:04.754Z,99.99
2017-03-01T03:54:14.618Z,99.99
2017-03-01T03:55:23.319Z,99.99
2017-03-01T03:56:32.821Z,99.99
2017-03-01T03:57:42.707Z,99.99
2017-03-01T03:58:52.580Z,99.99
2017-03-01T04:00:02.084Z,99.99
2017-03-01T04:01:11.545Z,99.99
2017-03-01T04:02:21.428Z,99.99
2017-03-01T04:03:30.915Z,99.99
2017-03-01T04:04:39.990Z,99.99
2017-03-01T04:05:49.492Z,99.99
2017-03-01T04:06:59.394Z,99.99
2017-03-01T04:08:08.506Z,99.99
2017-03-01T04:09:18.382Z,99.99
2017-03-01T04:10:27.069Z,99.99
2017-03-01T04:11:37.307Z,99.99
2017-03-01T04:12:47.187Z,99.99
2017-03-01T04:13:57.087Z,99.99
2017-03-01T04:15:06.218Z,99.99
2017-03-01T04:16:16.098Z,99.99
2017-03-01T04:17:25.203Z,99.99
2017-03-01T04:18:34.677Z,99.99
2017-03-01T04:19:44.558Z,99.99
2017-03-01T04:20:54.798Z,99.99
2017-03-01T04:22:03.527Z,99.99
2017-03-01T04:23:13.423Z,99.99
2017-03-01T04:24:22.522Z,99.99
2017-03-01T04:25:32.406Z,99.99
2017-03-01T04:26:41.901Z,99.99
2017-03-01T04:27:51.383Z,99.99
2017-03-01T04:29:01.249Z,99.99
2017-03-01T04:30:11.105Z,99.99
2017-03-01T04:31:20.983Z,99.99
2017-03-01T04:32:30.840Z,99.99
2017-03-01T04:33:39.941Z,99.99
2017-03-01T04:34:49.590Z,99.99
2017-03-01T04:35:59.067Z,99.99
2017-03-01T04:37:08.940Z,99.99
2017-03-01T04:38:17.668Z,99.99
2017-03-01T04:39:27.545Z,99.99
2017-03-01T04:40:36.629Z,99.99
2017-03-01T04:41:46.506Z,99.99
2017-03-01T04:42:56.352Z,99.99
2017-03-01T04:44:05.843Z,99.99
2017-03-01T04:45:15.741Z,99.99
2017-03-01T04:46:24.860Z,99.99
2017-03-01T04:47:34.725Z,99.99
2017-03-01T04:48:44.202Z,99.99
2017-03-01T04:49:53.308Z,99.99
2017-03-01T04:51:02.790Z,99.99
2017-03-01T04:52:11.881Z,99.99
2017-03-01T04:53:22.509Z,99.99
2017-03-01T04:54:32.002Z,99.99
2017-03-01T04:55:41.103Z,99.99
2017-03-01T04:56:49.807Z,99.99
2017-03-01T04:57:59.324Z,99.99
2017-03-01T04:59:09.561Z,99.99
2017-03-01T05:00:19.399Z,99.99
2017-03-01T05:01:28.500Z,99.99
2017-03-01T05:02:38.738Z,99.99
2017-03-01T05:03:47.824Z,99.99
2017-03-01T05:04:56.920Z,99.99
2017-03-01T05:06:06.416Z,99.99
2017-03-01T05:07:16.270Z,99.99
2017-03-01T05:08:26.911Z,99.99
2017-03-01T05:09:36.388Z,99.99
2017-03-01T05:10:46.299Z,99.99
2017-03-01T05:11:56.594Z,99.99
2017-03-01T05:13:06.457Z,99.99
2017-03-01T05:14:16.723Z,99.99
2017-03-01T05:15:26.623Z,99.99
2017-03-01T05:16:36.091Z,99.99
2017-03-01T05:17:45.217Z,99.99
2017-03-01T05:18:54.761Z,99.99
2017-03-01T05:20:05.053Z,99.99
2017-03-01T05:21:14.566Z,99.99
2017-03-01T05:22:24.071Z,99.99
2017-03-01T05:23:33.173Z,99.99
2017-03-01T05:24:43.054Z,99.99
2017-03-01T05:25:52.929Z,99.99
2017-03-01T05:27:02.790Z,99.99
2017-03-01T05:28:12.679Z,99.99
2017-03-01T05:29:22.157Z,99.99
2017-03-01T05:30:31.253Z,99.99
2017-03-01T05:31:41.139Z,99.99
2017-03-01T05:32:50.655Z,99.99
2017-03-01T05:34:00.916Z,99.99
2017-03-01T05:35:10.494Z,99.99
2017-03-01T05:36:20.166Z,99.99
2017-03-01T05:37:28.884Z,99.99
2017-03-01T05:38:38.902Z,99.99
2017-03-01T05:39:48.579Z,99.99
2017-03-01T05:40:58.051Z,99.99
2017-03-01T05:42:07.514Z,99.99
2017-03-01T05:43:18.273Z,99.99
2017-03-01T05:44:27.358Z,99.99
2017-03-01T05:45:37.267Z,99.99
2017-03-01T05:46:46.438Z,99.99
2017-03-01T05:47:56.679Z,99.99
2017-03-01T05:49:07.375Z,99.99
2017-03-01T05:50:16.498Z,99.99
2017-03-01T05:51:25.974Z,99.99
2017-03-01T05:52:35.491Z,99.99
2017-03-01T05:53:44.600Z,99.99
2017-03-01T05:54:53.674Z,99.99
2017-03-01T05:56:02.402Z,99.99
2017-03-01T05:57:11.514Z,99.99
2017-03-01T05:58:20.601Z,99.99
2017-03-01T05:59:30.442Z,99.99
2017-03-01T06:00:39.516Z,99.99
2017-03-01T06:01:49.363Z,99.99
2017-03-01T06:02:58.849Z,99.99
2017-03-01T06:04:09.105Z,99.99
2017-03-01T06:05:19.347Z,99.99
2017-03-01T06:06:28.836Z,99.99
2017-03-01T06:07:37.911Z,99.99
2017-03-01T06:08:47.014Z,99.99
2017-03-01T06:09:56.950Z,99.99
2017-03-01T06:11:06.789Z,99.99
2017-03-01T06:12:16.390Z,99.99
2017-03-01T06:13:26.288Z,99.99
2017-03-01T06:14:35.776Z,99.99
2017-03-01T06:15:45.243Z,99.99
2017-03-01T06:16:55.123Z,99.99
2017-03-01T06:18:05.031Z,99.99
2017-03-01T06:19:14.899Z,99.99
2017-03-01T06:20:24.791Z,99.99
2017-03-01T06:21:34.245Z,99.99
2017-03-01T06:22:44.106Z,99.99
2017-03-01T06:23:53.962Z,99.99
2017-03-01T06:25:03.050Z,99.99
2017-03-01T06:26:13.302Z,99.99
2017-03-01T06:27:22.764Z,99.99
2017-03-01T06:28:32.249Z,99.99
2017-03-01T06:29:42.121Z,99.99
2017-03-01T06:30:51.971Z,99.99
2017-03-01T06:32:01.431Z,99.99
2017-03-01T06:33:11.283Z,99.99
2017-03-01T06:34:20.744Z,99.99
2017-03-01T06:35:30.616Z,99.99
2017-03-01T06:36:40.847Z,99.99
2017-03-01T06:37:49.929Z,99.99
2017-03-01T06:38:59.386Z,99.99
2017-03-01T06:40:08.868Z,99.99
2017-03-01T06:41:18.356Z,99.99
2017-03-01T06:42:28.197Z,99.99
2017-03-01T06:43:38.071Z,99.99
2017-03-01T06:44:47.931Z,99.99
2017-03-01T06:45:57.402Z,99.99
2017-03-01T06:47:06.866Z,99.99
2017-03-01T06:48:15.957Z,99.99
2017-03-01T06:49:26.205Z,99.99
2017-03-01T06:50:36.053Z,99.99
2017-03-01T06:51:45.134Z,99.99
2017-03-01T06:52:54.604Z,99.99
2017-03-01T06:54:04.450Z,99.99
2017-03-01T06:55:13.935Z,99.99
2017-03-01T06:56:23.010Z,99.99
2017-03-01T06:57:32.461Z,99.99
2017-03-01T06:58:41.928Z,99.99
2017-03-01T06:59:51.774Z,99.99
2017-03-01T07:01:02.013Z,99.99
2017-03-01T07:02:12.254Z,99.99
2017-03-01T07:03:22.111Z,99.99
2017-03-01T07:04:31.213Z,99.99
2017-03-01T07:05:40.313Z,99.99
2017-03-01T07:06:50.557Z,99.99
2017-03-01T07:08:00.022Z,99.99
2017-03-01T07:09:09.508Z,99.99
2017-03-01T07:10:19.762Z,99.99
2017-03-01T07:11:28.465Z,99.99
2017-03-01T07:12:38.331Z,99.99
2017-03-01T07:13:47.808Z,99.99
2017-03-01T07:14:58.061Z,99.99
2017-03-01T07:16:07.903Z,99.99
2017-03-01T07:17:16.982Z,99.99
2017-03-01T07:18:26.836Z,99.99
2017-03-01T07:19:35.927Z,99.99
2017-03-01T07:20:45.771Z,99.99
2017-03-01T07:21:55.619Z,99.99
2017-03-01T07:23:05.472Z,99.99
2017-03-01T07:24:15.730Z,99.99
2017-03-01T07:25:25.578Z,99.99
2017-03-01T07:26:35.434Z,99.99
2017-03-01T07:27:45.296Z,99.99
2017-03-01T07:28:54.380Z,99.99
2017-03-01T07:30:03.849Z,99.99
2017-03-01T07:31:13.712Z,99.99
2017-03-01T07:32:23.561Z,99.99
2017-03-01T07:33:32.653Z,99.99
2017-03-01T07:34:42.114Z,99.99
2017-03-01T07:35:51.580Z,99.99
2017-03-01T07:37:00.693Z,99.99
2017-03-01T07:38:10.541Z,99.99
2017-03-01T07:39:20.036Z,99.99
2017-03-01T07:40:30.288Z,99.99
2017-03-01T07:41:39.788Z,99.99
2017-03-01T07:42:49.636Z,99.99
2017-03-01T07:43:59.865Z,99.99
2017-03-01T07:45:08.951Z,99.99
2017-03-01T07:46:18.839Z,99.99
2017-03-01T07:47:28.687Z,99.99
2017-03-01T07:48:38.211Z,99.99
2017-03-01T07:49:47.746Z,99.99
2017-03-01T07:50:57.221Z,99.99
2017-03-01T07:52:06.699Z,99.99
2017-03-01T07:53:15.776Z,99.99
2017-03-01T07:54:24.875Z,99.99
2017-03-01T07:55:33.960Z,99.99
2017-03-01T07:56:43.421Z,99.99
2017-03-01T07:57:52.497Z,99.99
2017-03-01T07:59:01.978Z,99.99
2017-03-01T08:00:11.861Z,99.99
2017-03-01T08:01:21.345Z,99.99
2017-03-01T08:02:30.457Z,99.99
2017-03-01T08:03:39.584Z,99.99
2017-03-01T08:04:48.686Z,99.99
2017-03-01T08:05:57.800Z,99.99
2017-03-01T08:07:07.678Z,99.99
2017-03-01T08:08:17.162Z,99.99
2017-03-01T08:09:26.250Z,99.99
2017-03-01T08:10:35.713Z,99.99
2017-03-01T08:11:44.833Z,99.99
2017-03-01T08:12:54.690Z,99.99
2017-03-01T08:14:04.162Z,99.99
2017-03-01T08:15:13.631Z,99.99
2017-03-01T08:16:22.765Z,99.99
2017-03-01T08:17:32.244Z,99.99
2017-03-01T08:18:42.532Z,99.99
2017-03-01T08:19:51.994Z,99.99
2017-03-01T08:21:01.641Z,99.99
2017-03-01T08:22:11.531Z,99.99
2017-03-01T08:23:21.043Z,99.99
2017-03-01T08:24:30.567Z,99.99
2017-03-01T08:25:40.432Z,99.99
2017-03-01T08:26:49.920Z,99.99
2017-03-01T08:27:59.038Z,99.99
2017-03-01T08:29:08.145Z,99.99
2017-03-01T08:30:17.304Z,99.99
2017-03-01T08:31:26.781Z,99.99
2017-03-01T08:32:36.749Z,99.99
2017-03-01T08:33:45.864Z,99.99
2017-03-01T08:34:54.965Z,99.99
2017-03-01T08:36:04.060Z,99.99
2017-03-01T08:37:12.780Z,99.99
2017-03-01T08:38:21.519Z,99.99
2017-03-01T08:39:31.397Z,99.99
2017-03-01T08:40:40.892Z,99.99
2017-03-01T08:41:51.265Z,99.99
2017-03-01T08:42:59.972Z,99.99
2017-03-01T08:44:09.840Z,99.99
2017-03-01T08:45:19.763Z,99.99
2017-03-01T08:46:29.631Z,99.99
2017-03-01T08:47:38.709Z,99.99
2017-03-01T08:48:47.833Z,99.99
2017-03-01T08:49:58.088Z,99.99
2017-03-01T08:51:07.941Z,99.99
2017-03-01T08:52:18.176Z,99.99
2017-03-01T08:53:28.462Z,99.99
2017-03-01T08:54:39.109Z,99.63
2017-03-01T08:55:49.390Z,99.99
2017-03-01T08:56:59.300Z,99.99
2017-03-01T08:58:08.407Z,99.99
2017-03-01T08:59:18.279Z,99.99
2017-03-01T09:00:28.165Z,99.99
2017-03-01T09:01:37.669Z,99.99
2017-03-01T09:02:47.524Z,99.99
2017-03-01T09:03:57.387Z,99.99
2017-03-01T09:05:06.483Z,99.99
2017-03-01T09:06:16.108Z,99.99
2017-03-01T09:07:25.638Z,99.99
2017-03-01T09:08:35.120Z,99.99
2017-03-01T09:09:45.004Z,99.58
2017-03-01T09:10:54.907Z,99.97
2017-03-01T09:12:04.478Z,99.99
2017-03-01T09:13:14.755Z,99.99
2017-03-01T09:14:24.630Z,99.99
2017-03-01T09:15:35.253Z,99.77
2017-03-01T09:16:44.837Z,99.99
2017-03-01T09:17:54.701Z,99.99
2017-03-01T09:19:04.546Z,99.99
2017-03-01T09:20:14.419Z,99.97
2017-03-01T09:21:23.959Z,99.99
2017-03-01T09:22:33.827Z,98.26
2017-03-01T09:23:42.948Z,99.64
2017-03-01T09:24:52.444Z,99.16
2017-03-01T09:26:01.139Z,98.4
2017-03-01T09:27:10.614Z,98.02
2017-03-01T09:28:20.527Z,98.4
2017-03-01T09:29:30.809Z,97.31
2017-03-01T09:30:40.702Z,97.07
2017-03-01T09:31:50.624Z,97.36
2017-03-01T09:33:00.118Z,97.41
2017-03-01T09:34:10.017Z,96.93
2017-03-01T09:35:19.526Z,96.74
2017-03-01T09:36:29.017Z,97.31
2017-03-01T09:37:38.137Z,95.98
2017-03-01T09:38:47.299Z,96.45
2017-03-01T09:39:57.631Z,95.22
2017-03-01T09:41:07.505Z,94.74
2017-03-01T09:42:17.176Z,94.84
2017-03-01T09:43:27.136Z,95.31
2017-03-01T09:44:36.713Z,95.12
2017-03-01T09:45:45.855Z,96.36
2017-03-01T09:46:55.745Z,96.17
2017-03-01T09:48:04.920Z,96.17
2017-03-01T09:49:14.811Z,95.31
2017-03-01T09:50:23.920Z,95.6
2017-03-01T09:51:33.408Z,96.83
2017-03-01T09:52:42.491Z,94.84
2017-03-01T09:53:52.041Z,95.31
2017-03-01T09:55:01.123Z,94.46
2017-03-01T09:56:10.628Z,94.65
2017-03-01T09:57:20.495Z,94.84
2017-03-01T09:58:30.765Z,95.03
2017-03-01T09:59:39.575Z,95.46
2017-03-01T10:00:48.678Z,95.17
2017-03-01T10:01:57.784Z,95.17
2017-03-01T10:03:08.431Z,94.32
2017-03-01T10:04:17.151Z,94.32
2017-03-01T10:05:26.275Z,95.17
2017-03-01T10:06:35.795Z,94.89
2017-03-01T10:07:44.547Z,94.93
2017-03-01T10:08:54.060Z,95.6
2017-03-01T10:10:03.934Z,94.74
2017-03-01T10:11:13.490Z,94.84
2017-03-01T10:12:23.023Z,93.46
2017-03-01T10:13:32.985Z,91.75
2017-03-01T10:14:42.516Z,89.28
2017-03-01T10:15:52.428Z,89.28
2017-03-01T10:17:01.926Z,90.23
2017-03-01T10:18:11.401Z,90.23
2017-03-01T10:19:20.114Z,90.33
2017-03-01T10:20:30.360Z,90.42
2017-03-01T10:21:39.833Z,88.04
2017-03-01T10:22:50.088Z,89.9
2017-03-01T10:23:59.940Z,90
2017-03-01T10:25:09.417Z,89.9
2017-03-01T10:26:19.661Z,90.19
2017-03-01T10:27:29.148Z,90.85
2017-03-01T10:28:38.236Z,91.8
2017-03-01T10:29:48.096Z,91.99
2017-03-01T10:30:58.345Z,89.9
2017-03-01T10:32:07.831Z,89.04
2017-03-01T10:33:16.562Z,89.42
2017-03-01T10:34:25.652Z,90.09
2017-03-01T10:35:35.139Z,88.85
2017-03-01T10:36:44.607Z,88.85
2017-03-01T10:37:54.072Z,86.61
2017-03-01T10:39:03.920Z,84.28
2017-03-01T10:40:13.012Z,82.67
2017-03-01T10:41:22.485Z,81.76
2017-03-01T10:42:31.951Z,80.84
2017-03-01T10:43:40.692Z,77.98
2017-03-01T10:44:50.164Z,80.33
2017-03-01T10:45:59.660Z,83.9
2017-03-01T10:47:09.925Z,84.72
2017-03-01T10:48:19.797Z,87.19
2017-03-01T10:49:28.509Z,87.62
2017-03-01T10:50:38.008Z,87.81
2017-03-01T10:51:47.866Z,88.28
2017-03-01T10:52:57.355Z,88.95
2017-03-01T10:54:07.238Z,89.04
2017-03-01T10:55:16.711Z,89.23
2017-03-01T10:56:26.555Z,90
2017-03-01T10:57:36.788Z,89.8
2017-03-01T10:58:46.653Z,86.29
2017-03-01T10:59:56.119Z,87.95
2017-03-01T11:01:06.379Z,87.38
2017-03-01T11:02:15.460Z,84.43
2017-03-01T11:03:24.934Z,83.58
2017-03-01T11:04:33.644Z,83.19
2017-03-01T11:05:42.743Z,81.48
2017-03-01T11:06:51.455Z,82.24
2017-03-01T11:08:00.980Z,86.05
2017-03-01T11:09:10.477Z,86.8
2017-03-01T11:10:20.350Z,88.42
2017-03-01T11:11:29.819Z,86.43
2017-03-01T11:12:39.669Z,82.81
2017-03-01T11:13:49.125Z,78.99
2017-03-01T11:14:59.744Z,77.22
2017-03-01T11:16:09.610Z,77.07
2017-03-01T11:17:19.094Z,78.16
2017-03-01T11:18:28.211Z,75.2
2017-03-01T11:19:37.704Z,75.11
2017-03-01T11:20:46.797Z,74.77
2017-03-01T11:21:56.659Z,76.59
2017-03-01T11:23:05.759Z,79.13
2017-03-01T11:24:15.637Z,76.65
2017-03-01T11:25:24.338Z,76.65
2017-03-01T11:26:34.189Z,76.88
2017-03-01T11:27:44.862Z,75.99
2017-03-01T11:28:55.483Z,76.37
2017-03-01T11:30:04.975Z,76.81
2017-03-01T11:31:14.070Z,77.19
2017-03-01T11:32:23.537Z,75.05
2017-03-01T11:33:33.771Z,74.1
2017-03-01T11:34:43.656Z,74.67
2017-03-01T11:35:53.910Z,75.81
2017-03-01T11:37:02.616Z,72.81
2017-03-01T11:38:12.478Z,72.46
2017-03-01T11:39:22.717Z,72.27
2017-03-01T11:40:31.796Z,73.41
2017-03-01T11:41:40.884Z,72.27
2017-03-01T11:42:50.032Z,74.08
2017-03-01T11:43:59.515Z,72.37
2017-03-01T11:45:09.371Z,71.09
2017-03-01T11:46:18.853Z,69.89
2017-03-01T11:47:28.738Z,71.13
2017-03-01T11:48:37.848Z,70.56
2017-03-01T11:49:47.308Z,68.94
2017-03-01T11:50:56.810Z,70.9
2017-03-01T11:52:06.672Z,73.28
2017-03-01T11:53:15.803Z,72.71
2017-03-01T11:54:25.690Z,71.76
2017-03-01T11:55:35.547Z,69.95
2017-03-01T11:56:45.028Z,69.57
2017-03-01T11:57:55.276Z,67.8
2017-03-01T11:59:05.185Z,69.51
2017-03-01T12:00:14.269Z,68.94
2017-03-01T12:01:23.758Z,66.37
2017-03-01T12:02:33.263Z,67.32
2017-03-01T12:03:42.354Z,68.46
2017-03-01T12:04:51.802Z,70.84
2017-03-01T12:06:01.276Z,71.03
2017-03-01T12:07:10.766Z,68.27
2017-03-01T12:08:19.887Z,68.75
2017-03-01T12:09:29.759Z,68.75
2017-03-01T12:10:39.985Z,69.29
2017-03-01T12:11:49.853Z,71.09
2017-03-01T12:13:00.124Z,69.57
2017-03-01T12:14:09.988Z,69.67
2017-03-01T12:15:19.868Z,71.67
2017-03-01T12:16:30.099Z,72.14
2017-03-01T12:17:40.338Z,69.19
2017-03-01T12:18:49.456Z,69.38
2017-03-01T12:19:59.349Z,68.01
2017-03-01T12:21:08.057Z,68.21
2017-03-01T12:22:18.301Z,67.16
2017-03-01T12:23:27.764Z,67.47
2017-03-01T12:24:37.603Z,66.43
2017-03-01T12:25:47.462Z,65.1
2017-03-01T12:26:56.931Z,65.1
2017-03-01T12:28:06.420Z,65.86
2017-03-01T12:29:16.280Z,65.95
2017-03-01T12:30:26.166Z,66.43
2017-03-01T12:31:35.283Z,65.95
2017-03-01T12:32:45.132Z,67.29
2017-03-01T12:33:54.238Z,65.8
2017-03-01T12:35:04.098Z,65.61
2017-03-01T12:36:14.355Z,65.48
2017-03-01T12:37:23.840Z,64.65
2017-03-01T12:38:32.926Z,64.15
2017-03-01T12:39:42.776Z,65.29
2017-03-01T12:40:52.643Z,65.86
2017-03-01T12:42:02.509Z,64.9
2017-03-01T12:43:12.384Z,65.61
2017-03-01T12:44:21.899Z,64.94
2017-03-01T12:45:31.749Z,64.28
2017-03-01T12:46:40.850Z,65.58
2017-03-01T12:47:49.959Z,65.7
2017-03-01T12:48:59.825Z,64.18
2017-03-01T12:50:09.693Z,63.23
2017-03-01T12:51:19.965Z,63.13
2017-03-01T12:52:29.440Z,64.9
2017-03-01T12:53:38.929Z,64.53
2017-03-01T12:54:48.400Z,64.43
2017-03-01T12:55:57.507Z,65.58
2017-03-01T12:57:06.600Z,65.58
2017-03-01T12:58:16.445Z,66.05
2017-03-01T12:59:25.947Z,66.53
2017-03-01T13:00:36.176Z,65.58
2017-03-01T13:01:45.244Z,65.48
2017-03-01T13:02:54.352Z,67.38
2017-03-01T13:04:03.823Z,68.43
2017-03-01T13:05:14.084Z,65.7
2017-03-01T13:06:22.793Z,65.42
2017-03-01T13:07:32.275Z,65.61
2017-03-01T13:08:42.164Z,65.23
2017-03-01T13:09:51.283Z,66.75
2017-03-01T13:11:00.745Z,65.99
2017-03-01T13:12:10.615Z,64.59
2017-03-01T13:13:20.478Z,65.8
2017-03-01T13:14:29.586Z,67.93
2017-03-01T13:15:39.429Z,66.21
2017-03-01T13:16:49.686Z,68.21
2017-03-01T13:17:59.905Z,64.97
2017-03-01T13:19:09.005Z,65.89
2017-03-01T13:20:18.869Z,66.56
2017-03-01T13:21:28.751Z,66.37
2017-03-01T13:22:38.672Z,66.56
2017-03-01T13:23:47.772Z,66.56
2017-03-01T13:24:56.849Z,65.42
2017-03-01T13:26:05.935Z,66.85
2017-03-01T13:27:15.804Z,66.56
2017-03-01T13:28:26.073Z,66.46
2017-03-01T13:29:36.316Z,65.61
2017-03-01T13:30:46.222Z,66.85
2017-03-01T13:31:56.099Z,67.41
2017-03-01T13:33:05.583Z,67.32
2017-03-01T13:34:15.044Z,68.08
2017-03-01T13:35:24.908Z,69.13
2017-03-01T13:36:34.368Z,69.42
2017-03-01T13:37:44.257Z,67.99
2017-03-01T13:38:52.977Z,68.27
2017-03-01T13:40:02.457Z,67.89
2017-03-01T13:41:12.309Z,68.62
2017-03-01T13:42:22.557Z,69.19
2017-03-01T13:43:32.786Z,69.19
2017-03-01T13:44:41.895Z,69.29
2017-03-01T13:45:51.003Z,70.72
2017-03-01T13:47:00.480Z,70.81
2017-03-01T13:48:09.948Z,71.19
2017-03-01T13:49:19.459Z,71.09
2017-03-01T13:50:29.331Z,71.19
2017-03-01T13:51:38.424Z,70.33
2017-03-01T13:52:47.152Z,70.9
2017-03-01T13:53:57.045Z,71.19
2017-03-01T13:55:06.134Z,71.28
2017-03-01T13:56:15.219Z,72.33
2017-03-01T13:57:25.094Z,72.71
2017-03-01T13:58:34.177Z,73.19
2017-03-01T13:59:43.281Z,73.19
2017-03-01T14:00:53.139Z,74.24
2017-03-01T14:02:02.601Z,73.85
2017-03-01T14:03:12.842Z,74.33
2017-03-01T14:04:22.339Z,74.77
2017-03-01T14:05:31.438Z,75.62
2017-03-01T14:06:41.296Z,75.24
2017-03-01T14:07:51.165Z,75.67
2017-03-01T14:09:01.024Z,73.95
2017-03-01T14:10:10.502Z,73.85
2017-03-01T14:11:19.601Z,74.33
2017-03-01T14:12:29.076Z,73.76
2017-03-01T14:13:38.563Z,73.85
2017-03-01T14:14:47.673Z,73.38
2017-03-01T14:15:57.164Z,73.95
2017-03-01T14:17:06.272Z,74.04
2017-03-01T14:18:16.140Z,74.52
2017-03-01T14:19:26.380Z,74.14
2017-03-01T14:20:36.275Z,74.43
2017-03-01T14:21:46.154Z,73.85
2017-03-01T14:22:55.619Z,74.24
2017-03-01T14:24:05.097Z,74.77
2017-03-01T14:25:14.943Z,74.43
2017-03-01T14:26:24.431Z,74.58
2017-03-01T14:27:33.528Z,74.87
2017-03-01T14:28:43.393Z,74.77
2017-03-01T14:29:52.865Z,74.14
2017-03-01T14:31:02.353Z,74.58
2017-03-01T14:32:11.826Z,75.15
2017-03-01T14:33:21.681Z,76.1
2017-03-01T14:34:30.377Z,76.01
2017-03-01T14:35:39.856Z,76.81
2017-03-01T14:36:49.716Z,76.42
2017-03-01T14:37:59.584Z,75.47
2017-03-01T14:39:09.055Z,74.9
2017-03-01T14:40:18.919Z,74.52
2017-03-01T14:41:27.999Z,74.8
2017-03-01T14:42:37.486Z,74.52
2017-03-01T14:43:47.349Z,74.8
2017-03-01T14:44:56.807Z,74.8
2017-03-01T14:46:06.302Z,73.38
2017-03-01T14:47:15.407Z,73.1
2017-03-01T14:48:24.901Z,74.14
2017-03-01T14:49:34.748Z,73.85
2017-03-01T14:50:43.843Z,74.24
2017-03-01T14:51:52.938Z,73.95
2017-03-01T14:53:02.425Z,73.95
2017-03-01T14:54:11.891Z,74.43
2017-03-01T14:55:20.976Z,74.87
2017-03-01T14:56:30.453Z,74.8
2017-03-01T14:57:39.922Z,74.67